New Orleans Nas Jrb/Alvin Callender Field/ Airport
KNBG : rendu visible

Aérodrome :











RETROUVEZ-NOUS SUR...

 
LOGIN :

S'inscrire | Disclaimer

   EN    FR    IT 

 









Légende :    VFR   VFR Marginal   IFR   IFR Intensif   IFR Très Intensif
Visi : 
Plafond : 
>= 8 km
>= 3000ft
5 à 8 km
1000 à 3000 ft
1500m à 5 km
500 à 1000 ft
800 à 1500m
200 à 500 ft
< 800m
< 200 ft
Symboles :   Orages  Brouillard  Fortes neiges  Fortes précipitations  Vent > 20 kt






- Altitude de l'aérodrome : 2 ft


KNBG - New Orleans Nas Jrb/Alvin Callender Field/

DERNIER METAR :
  • 201555Z 08005KT 7SM BKN250 19/11 A3020 RMK AO2 SLP226 T01940111 $

METARs EXPIRÉS :
  • 201455Z 05006KT 6SM HZ BKN250 18/12 A3019 RMK AO2 SLP222 T01780117 51018 $
  • 201355Z 00000KT 3SM BR SCT005 SCT250 12/12 A3018 RMK AO2 SLP218 T01220117 $

TAF TAF KNBG
Valide du 20 à 15h jusqu'au 21 à 15h UTC


2015/2115 08010KT 9999 FEW110 BKN250 QNH3007INS
TEMPO 2018/2022 09010G15KT 9999 FEW030 SCT120 BKN250
BECMG 2022/2100 VRB06KT 9999 SCT250 QNH3008INS
BECMG 2106/2108 10005KT 4800 BR FEW0005 SCT250 QNH3012INS
TEMPO 2108/2113 VRB02KT 1600 BR SCT005 BKN250
BECMG 2113/2115 09006KT 9999 NSW FEW005 BKN250 QNH3015INS T23/2020Z T12/2112Z FN20039



MET'MAP, la Météo Aéronautique d'un coup d'oeil ! - Copyright ORBIFLY Décembre 2007 - Disclaimer

ORBIFLY MET'MAP TEAM :

Programmation & Développement : Alexandra Zaïnal
Conception & Développement : Baudouin d'Aumeries
Co-Programmation & Développement : Marc-Olivier Méhu
Soutien technique & logistique : Manuel Goepfert

Contact : metmap@orbifly.com




SOURCES & CREDITS :

   NOAA       Earth
Advisory